createdAt,value
2018-03-24T00:01:51.186Z,4.21
2018-03-24T00:04:23.726Z,4.03
2018-03-24T00:06:56.382Z,4.17
2018-03-24T00:09:29.719Z,4.20
2018-03-24T00:12:02.915Z,4.29
2018-03-24T00:14:36.133Z,4.13
2018-03-24T00:17:10.546Z,4.07
2018-03-24T00:19:43.268Z,4.14
2018-03-24T00:22:17.082Z,3.97
2018-03-24T00:24:49.792Z,3.95
2018-03-24T00:27:22.327Z,3.96
2018-03-24T00:29:54.701Z,4.02
2018-03-24T00:32:27.427Z,3.88
2018-03-24T00:35:00.022Z,3.83
2018-03-24T00:37:32.518Z,3.87
2018-03-24T00:40:05.036Z,3.92
2018-03-24T00:42:37.567Z,3.88
2018-03-24T00:45:10.345Z,3.85
2018-03-24T00:47:42.751Z,3.74
2018-03-24T00:50:15.989Z,3.81
2018-03-24T00:52:48.675Z,3.94
2018-03-24T00:55:21.301Z,3.91
2018-03-24T00:57:54.132Z,3.91
2018-03-24T01:00:27.236Z,3.92
2018-03-24T01:03:00.172Z,3.86
2018-03-24T01:05:32.886Z,3.82
2018-03-24T01:08:05.724Z,3.64
2018-03-24T01:10:38.443Z,3.83
2018-03-24T01:13:11.118Z,3.90
2018-03-24T01:15:43.742Z,3.87
2018-03-24T01:18:16.702Z,3.84
2018-03-24T01:20:49.151Z,3.72
2018-03-24T01:23:22.790Z,3.66
2018-03-24T01:25:56.300Z,3.76
2018-03-24T01:28:28.698Z,3.77
2018-03-24T01:31:03.408Z,3.79
2018-03-24T01:33:36.278Z,3.67
2018-03-24T01:36:08.933Z,3.70
2018-03-24T01:38:41.448Z,3.69
2018-03-24T01:41:14.971Z,3.62
2018-03-24T01:43:47.459Z,3.74
2018-03-24T01:46:20.070Z,3.76
2018-03-24T01:48:52.541Z,3.73
2018-03-24T01:51:24.835Z,3.88
2018-03-24T01:53:57.460Z,3.59
2018-03-24T01:56:29.965Z,3.57
2018-03-24T01:59:02.552Z,3.68
2018-03-24T02:01:35.667Z,3.68
2018-03-24T02:04:08.359Z,3.79
2018-03-24T02:06:41.258Z,3.67
2018-03-24T02:09:14.441Z,3.64
2018-03-24T02:11:47.483Z,3.42
2018-03-24T02:14:20.270Z,3.40
2018-03-24T02:16:52.753Z,3.32
2018-03-24T02:19:27.797Z,3.21
2018-03-24T02:22:00.572Z,3.38
2018-03-24T02:24:34.152Z,3.43
2018-03-24T02:27:07.574Z,3.44
2018-03-24T02:29:40.146Z,3.43
2018-03-24T02:32:12.602Z,3.28
2018-03-24T02:34:46.453Z,3.46
2018-03-24T02:37:18.846Z,3.36
2018-03-24T02:39:51.214Z,3.27
2018-03-24T02:42:24.175Z,2.99
2018-03-24T02:44:56.592Z,3.02
2018-03-24T02:47:29.207Z,3.04
2018-03-24T02:50:02.661Z,2.98
2018-03-24T02:52:35.015Z,3.00
2018-03-24T02:55:07.536Z,3.14
2018-03-24T02:57:40.184Z,3.21
2018-03-24T03:00:12.557Z,2.84
2018-03-24T03:02:45.105Z,2.68
2018-03-24T03:05:17.853Z,2.78
2018-03-24T03:07:50.432Z,2.87
2018-03-24T03:10:22.776Z,2.81
2018-03-24T03:12:55.290Z,2.62
2018-03-24T03:15:28.011Z,2.68
2018-03-24T03:18:00.768Z,2.67
2018-03-24T03:20:33.322Z,2.64
2018-03-24T03:23:05.804Z,2.68
2018-03-24T03:25:38.528Z,2.59
2018-03-24T03:28:11.257Z,2.52
2018-03-24T03:30:43.929Z,2.37
2018-03-24T03:33:16.462Z,2.54
2018-03-24T03:35:49.094Z,2.43
2018-03-24T03:38:21.566Z,2.25
2018-03-24T03:40:54.204Z,1.83
2018-03-24T03:43:27.031Z,1.82
2018-03-24T03:45:59.421Z,1.79
2018-03-24T03:48:32.025Z,1.79
2018-03-24T03:51:04.784Z,1.89
2018-03-24T03:53:37.382Z,2.05
2018-03-24T03:56:09.782Z,1.89
2018-03-24T03:58:42.443Z,1.63
2018-03-24T04:01:15.079Z,1.54
2018-03-24T04:03:47.493Z,1.53
2018-03-24T04:06:21.224Z,1.56
2018-03-24T04:08:53.751Z,1.69
2018-03-24T04:11:26.264Z,1.67
2018-03-24T04:13:59.388Z,1.60
2018-03-24T04:16:31.679Z,1.74
2018-03-24T04:19:04.173Z,1.60
2018-03-24T04:21:36.894Z,1.53
2018-03-24T04:24:09.243Z,1.34
2018-03-24T04:26:43.981Z,1.10
2018-03-24T04:29:16.607Z,1.24
2018-03-24T04:31:49.204Z,1.48
2018-03-24T04:34:21.629Z,1.47
2018-03-24T04:36:54.215Z,1.39
2018-03-24T04:39:27.488Z,1.11
2018-03-24T04:42:00.310Z,1.29
2018-03-24T04:44:32.645Z,1.31
2018-03-24T04:47:05.036Z,1.30
2018-03-24T04:49:37.700Z,1.14
2018-03-24T04:52:10.330Z,1.40
2018-03-24T04:54:42.819Z,1.26
2018-03-24T04:57:15.533Z,1.37
2018-03-24T04:59:47.931Z,1.38
2018-03-24T05:02:20.520Z,1.37
2018-03-24T05:04:53.183Z,1.24
2018-03-24T05:07:25.796Z,1.42
2018-03-24T05:09:58.161Z,1.34
2018-03-24T05:12:30.958Z,1.41
2018-03-24T05:15:03.658Z,1.46
2018-03-24T05:17:35.955Z,1.41
2018-03-24T05:20:09.490Z,1.44
2018-03-24T05:22:42.000Z,1.25
2018-03-24T05:25:15.382Z,1.43
2018-03-24T05:27:49.816Z,1.24
2018-03-24T05:30:22.316Z,1.27
2018-03-24T05:32:54.771Z,1.54
2018-03-24T05:35:28.572Z,1.71
2018-03-24T05:38:01.084Z,1.77
2018-03-24T05:40:33.747Z,1.85
2018-03-24T05:43:07.379Z,1.69
2018-03-24T05:45:40.169Z,1.72
2018-03-24T05:48:12.566Z,1.86
2018-03-24T05:50:45.323Z,1.84
2018-03-24T05:53:17.795Z,1.56
2018-03-24T05:55:50.436Z,1.49
2018-03-24T05:58:23.112Z,1.58
2018-03-24T06:00:55.798Z,1.67
2018-03-24T06:03:28.536Z,1.76
2018-03-24T06:06:01.332Z,1.82
2018-03-24T06:08:33.876Z,1.79
2018-03-24T06:11:06.569Z,1.75
2018-03-24T06:13:39.415Z,1.83
2018-03-24T06:16:12.326Z,1.81
2018-03-24T06:18:44.912Z,2.01
2018-03-24T06:21:19.570Z,1.96
2018-03-24T06:23:52.826Z,1.85
2018-03-24T06:26:25.605Z,2.03
2018-03-24T06:28:58.511Z,1.90
2018-03-24T06:31:32.243Z,2.10
2018-03-24T06:34:05.752Z,2.15
2018-03-24T06:36:38.593Z,2.31
2018-03-24T06:39:11.402Z,2.62
2018-03-24T06:41:44.399Z,2.66
2018-03-24T06:44:17.546Z,2.64
2018-03-24T06:46:50.511Z,2.87
2018-03-24T06:49:30.359Z,3.09
2018-03-24T06:52:10.371Z,3.34
2018-03-24T06:54:50.419Z,3.30
2018-03-24T06:57:23.621Z,3.57
2018-03-24T06:59:56.679Z,3.65
2018-03-24T07:02:29.808Z,3.62
2018-03-24T07:05:09.069Z,3.53
2018-03-24T07:07:49.310Z,3.73
2018-03-24T07:10:23.182Z,3.69
2018-03-24T07:13:02.750Z,3.77
2018-03-24T07:15:36.011Z,3.77
2018-03-24T07:18:09.077Z,3.79
2018-03-24T07:20:42.233Z,3.79
2018-03-24T07:23:15.144Z,3.80
2018-03-24T07:25:48.678Z,3.91
2018-03-24T07:28:29.075Z,4.05
2018-03-24T07:31:01.898Z,4.18
2018-03-24T07:40:43.381Z,4.31
2018-03-24T07:43:49.253Z,4.63
2018-03-24T07:47:09.480Z,4.87
2018-03-24T07:50:08.897Z,5.14
2018-03-24T07:53:10.902Z,5.60
2018-03-24T07:56:09.041Z,5.81
2018-03-24T07:59:27.038Z,6.19
2018-03-24T08:02:51.626Z,6.38
2018-03-24T08:06:34.956Z,6.70
2018-03-24T08:10:24.720Z,7.16
2018-03-24T08:13:29.675Z,7.38
2018-03-24T08:17:05.572Z,7.18
2018-03-24T08:20:59.430Z,7.25
2018-03-24T08:33:52.533Z,8.16
2018-03-24T08:38:20.938Z,8.10
2018-03-24T08:41:27.371Z,8.38
2018-03-24T08:44:40.881Z,8.23
2018-03-24T08:47:43.420Z,8.00
2018-03-24T08:50:54.500Z,8.07
2018-03-24T08:55:38.181Z,8.26
2018-03-24T08:59:08.535Z,8.55
2018-03-24T09:02:19.502Z,8.50
2018-03-24T09:05:12.666Z,8.59
2018-03-24T09:08:17.544Z,9.00
2018-03-24T09:11:38.929Z,9.14
2018-03-24T09:43:08.132Z,10.17
2018-03-24T10:21:31.747Z,11.66
2018-03-24T10:24:08.976Z,12.17
2018-03-24T10:26:41.718Z,12.15
2018-03-24T10:29:20.055Z,11.86
2018-03-24T10:31:58.548Z,11.88
2018-03-24T10:34:31.352Z,12.10
2018-03-24T10:37:05.106Z,11.67
2018-03-24T10:39:38.122Z,11.99
2018-03-24T10:42:10.931Z,12.66
2018-03-24T10:44:45.025Z,12.82
2018-03-24T10:47:17.981Z,12.65
2018-03-24T10:49:51.463Z,12.66
2018-03-24T10:52:37.223Z,12.97
2018-03-24T10:55:11.191Z,12.97
2018-03-24T10:57:44.604Z,13.06
2018-03-24T11:00:27.050Z,12.99
2018-03-24T11:03:00.299Z,12.40
2018-03-24T11:05:33.732Z,13.06
2018-03-24T11:08:10.598Z,12.92
2018-03-24T11:10:44.570Z,12.70
2018-03-24T11:13:20.336Z,12.72
2018-03-24T11:16:00.977Z,12.77
2018-03-24T11:18:34.590Z,13.12
2018-03-24T11:21:17.829Z,13.62
2018-03-24T11:24:04.622Z,13.14
2018-03-24T11:26:37.602Z,12.68
2018-03-24T11:29:10.946Z,12.68
2018-03-24T11:31:45.016Z,12.85
2018-03-24T11:34:18.796Z,13.44
2018-03-24T11:36:52.322Z,13.61
2018-03-24T11:39:25.301Z,13.18
2018-03-24T11:41:58.300Z,13.08
2018-03-24T11:44:31.961Z,13.04
2018-03-24T11:47:06.329Z,13.23
2018-03-24T11:49:39.867Z,13.40
2018-03-24T11:52:13.057Z,13.42
2018-03-24T11:54:47.042Z,13.38
2018-03-24T11:57:21.594Z,13.26
2018-03-24T11:59:54.533Z,13.64
2018-03-24T12:02:27.764Z,13.78
2018-03-24T12:05:00.603Z,13.85
2018-03-24T12:07:33.507Z,13.53
2018-03-24T12:10:06.436Z,13.64
2018-03-24T12:12:42.192Z,12.80
2018-03-24T12:15:26.950Z,12.37
2018-03-24T12:18:07.104Z,12.58
2018-03-24T12:20:48.072Z,12.35
2018-03-24T12:23:21.820Z,12.53
2018-03-24T12:25:55.683Z,12.60
2018-03-24T12:28:36.301Z,12.76
2018-03-24T12:31:11.672Z,12.87
2018-03-24T12:33:55.227Z,12.98
2018-03-24T12:36:35.628Z,12.37
2018-03-24T12:39:14.768Z,12.13
2018-03-24T12:41:48.364Z,12.51
2018-03-24T12:44:37.296Z,12.40
2018-03-24T12:47:25.434Z,13.08
2018-03-24T12:49:59.139Z,13.54
2018-03-24T12:55:50.243Z,13.40
2018-03-24T12:58:35.062Z,13.22
2018-03-24T13:01:08.004Z,12.77
2018-03-24T13:03:42.742Z,12.25
2018-03-24T13:06:26.150Z,12.79
2018-03-24T13:09:06.668Z,12.52
2018-03-24T13:11:52.514Z,12.33
2018-03-24T13:14:33.314Z,12.01
2018-03-24T13:17:07.048Z,11.71
2018-03-24T13:19:40.558Z,11.88
2018-03-24T13:22:25.539Z,12.05
2018-03-24T13:25:07.645Z,12.35
2018-03-24T13:27:51.410Z,12.38
2018-03-24T13:30:34.916Z,12.71
2018-03-24T13:33:09.185Z,12.35
2018-03-24T13:35:42.392Z,12.21
2018-03-24T13:38:15.355Z,12.07
2018-03-24T13:40:49.457Z,12.07
2018-03-24T13:43:23.278Z,12.13
2018-03-24T13:45:56.320Z,11.99
2018-03-24T13:48:30.375Z,11.93
2018-03-24T13:51:14.817Z,12.27
2018-03-24T13:54:13.007Z,12.24
2018-03-24T13:56:46.707Z,12.13
2018-03-24T13:59:19.916Z,12.13
2018-03-24T14:01:54.226Z,11.90
2018-03-24T14:04:27.479Z,11.65
2018-03-24T14:07:13.947Z,11.43
2018-03-24T14:10:03.570Z,11.58
2018-03-24T14:12:44.256Z,11.75
2018-03-24T14:15:18.249Z,12.01
2018-03-24T14:18:01.603Z,12.18
2018-03-24T14:20:49.499Z,12.21
2018-03-24T14:23:22.891Z,12.45
2018-03-24T14:25:55.900Z,12.61
2018-03-24T14:28:29.374Z,12.85
2018-03-24T14:31:02.930Z,13.02
2018-03-24T14:33:35.937Z,13.10
2018-03-24T14:36:16.313Z,12.97
2018-03-24T14:38:49.482Z,12.97
2018-03-24T14:41:22.547Z,12.64
2018-03-24T14:43:55.537Z,12.24
2018-03-24T14:46:28.603Z,12.21
2018-03-24T14:49:03.858Z,12.10
2018-03-24T14:51:40.040Z,12.34
2018-03-24T14:54:13.471Z,12.51
2018-03-24T14:56:46.470Z,12.41
2018-03-24T14:59:19.823Z,12.37
2018-03-24T15:01:53.936Z,12.13
2018-03-24T15:04:38.713Z,12.26
2018-03-24T15:07:13.203Z,12.26
2018-03-24T15:09:46.055Z,12.10
2018-03-24T15:12:23.658Z,11.73
2018-03-24T15:14:57.658Z,11.76
2018-03-24T15:17:31.151Z,11.82
2018-03-24T15:20:11.743Z,11.81
2018-03-24T15:22:45.693Z,11.94
2018-03-24T15:25:31.257Z,12.00
2018-03-24T15:28:05.095Z,11.84
2018-03-24T15:32:53.454Z,11.83
2018-03-24T15:35:31.525Z,11.87
2018-03-24T15:38:15.710Z,11.77
2018-03-24T15:41:00.895Z,11.75
2018-03-24T15:43:33.920Z,11.65
2018-03-24T15:46:07.313Z,11.47
2018-03-24T15:48:41.306Z,11.80
2018-03-24T15:51:15.963Z,11.62
2018-03-24T15:53:49.630Z,11.76
2018-03-24T15:56:22.708Z,11.85
2018-03-24T15:58:56.714Z,11.83
2018-03-24T16:01:31.023Z,11.53
2018-03-24T16:04:05.102Z,11.38
2018-03-24T16:06:37.926Z,11.22
2018-03-24T16:09:11.667Z,11.29
2018-03-24T16:11:44.765Z,11.21
2018-03-24T16:14:17.775Z,11.35
2018-03-24T16:17:03.588Z,11.29
2018-03-24T16:19:45.732Z,11.27
2018-03-24T16:22:18.743Z,11.17
2018-03-24T16:24:52.560Z,10.95
2018-03-24T16:27:27.954Z,11.04
2018-03-24T16:30:00.769Z,11.00
2018-03-24T16:32:33.587Z,10.74
2018-03-24T16:35:06.992Z,10.58
2018-03-24T16:37:40.460Z,10.56
2018-03-24T16:40:18.315Z,10.66
2018-03-24T16:42:51.291Z,10.57
2018-03-24T16:45:24.332Z,10.39
2018-03-24T16:47:59.555Z,10.32
2018-03-24T16:50:32.607Z,10.26
2018-03-24T16:53:05.851Z,10.20
2018-03-24T16:55:39.296Z,9.89
2018-03-24T16:58:12.370Z,9.92
2018-03-24T17:00:46.090Z,9.89
2018-03-24T17:03:30.873Z,9.73
2018-03-24T17:06:04.254Z,9.52
2018-03-24T17:08:37.337Z,9.46
2018-03-24T17:11:11.744Z,9.36
2018-03-24T17:13:45.142Z,9.26
2018-03-24T17:16:42.015Z,9.11
2018-03-24T17:19:17.964Z,9.06
2018-03-24T17:21:51.029Z,9.04
2018-03-24T17:24:29.915Z,8.84
2018-03-24T17:27:03.760Z,8.65
2018-03-24T17:29:38.661Z,8.62
2018-03-24T17:32:16.106Z,8.48
2018-03-24T17:34:49.987Z,8.27
2018-03-24T17:37:24.329Z,8.12
2018-03-24T17:39:57.927Z,8.02
2018-03-24T17:42:31.478Z,7.87
2018-03-24T17:45:04.902Z,7.74
2018-03-24T17:47:38.599Z,7.66
2018-03-24T17:50:11.747Z,7.51
2018-03-24T17:52:45.022Z,7.42
2018-03-24T17:55:18.963Z,7.38
2018-03-24T17:57:52.141Z,7.15
2018-03-24T18:00:25.215Z,6.96
2018-03-24T18:03:07.832Z,6.88
2018-03-24T18:05:41.285Z,6.80
2018-03-24T18:08:14.669Z,6.76
2018-03-24T18:10:48.214Z,6.66
2018-03-24T18:13:21.356Z,6.52
2018-03-24T18:15:54.922Z,6.53
2018-03-24T18:18:27.842Z,6.44
2018-03-24T18:21:01.002Z,6.38
2018-03-24T18:23:34.328Z,6.30
2018-03-24T18:26:07.145Z,6.27
2018-03-24T18:28:40.362Z,6.21
2018-03-24T18:31:22.267Z,6.13
2018-03-24T18:33:55.149Z,6.02
2018-03-24T18:36:28.683Z,5.97
2018-03-24T18:39:08.194Z,5.95
2018-03-24T18:41:41.429Z,5.84
2018-03-24T18:44:14.315Z,5.81
2018-03-24T18:46:51.188Z,5.78
2018-03-24T18:49:24.782Z,5.80
2018-03-24T18:51:57.809Z,5.81
2018-03-24T18:54:37.876Z,5.79
2018-03-24T18:57:16.325Z,5.67
2018-03-24T18:59:50.118Z,5.59
2018-03-24T19:02:25.547Z,5.45
2018-03-24T19:04:59.744Z,5.44
2018-03-24T19:07:35.447Z,5.41
2018-03-24T19:10:13.034Z,5.37
2018-03-24T19:12:46.337Z,5.30
2018-03-24T19:15:19.386Z,5.23
2018-03-24T19:17:52.318Z,5.16
2018-03-24T19:20:25.481Z,5.03
2018-03-24T19:22:59.101Z,4.93
2018-03-24T19:25:32.240Z,4.90
2018-03-24T19:28:09.037Z,4.88
2018-03-24T19:30:44.052Z,4.79
2018-03-24T19:33:17.020Z,4.75
2018-03-24T19:35:50.265Z,4.76
2018-03-24T19:38:23.840Z,4.67
2018-03-24T19:40:57.522Z,4.57
2018-03-24T19:43:30.634Z,4.43
2018-03-24T19:46:03.484Z,4.51
2018-03-24T19:48:36.556Z,4.38
2018-03-24T19:51:09.656Z,4.41
2018-03-24T19:53:43.587Z,4.44
2018-03-24T19:56:16.779Z,4.38
2018-03-24T19:58:50.119Z,4.22
2018-03-24T20:01:23.365Z,4.13
2018-03-24T20:03:56.317Z,4.12
2018-03-24T20:06:29.524Z,4.06
2018-03-24T20:09:02.539Z,4.03
2018-03-24T20:11:38.311Z,3.97
2018-03-24T20:14:11.597Z,3.89
2018-03-24T20:16:45.400Z,3.79
2018-03-24T20:19:18.315Z,3.76
2018-03-24T20:21:51.648Z,3.73
2018-03-24T20:24:25.605Z,3.65
2018-03-24T20:26:58.496Z,3.55
2018-03-24T20:29:32.173Z,3.44
2018-03-24T20:32:05.240Z,3.39
2018-03-24T20:34:38.321Z,3.33
2018-03-24T20:37:12.019Z,3.29
2018-03-24T20:39:45.302Z,3.31
2018-03-24T20:42:18.923Z,3.24
2018-03-24T20:44:51.853Z,3.02
2018-03-24T20:47:25.033Z,2.94
2018-03-24T20:49:57.866Z,2.93
2018-03-24T20:52:31.365Z,2.86
2018-03-24T20:55:06.227Z,2.83
2018-03-24T20:57:39.354Z,2.77
2018-03-24T21:00:12.187Z,2.71
2018-03-24T21:02:45.819Z,2.73
2018-03-24T21:05:19.016Z,2.59
2018-03-24T21:07:51.676Z,2.53
2018-03-24T21:10:25.633Z,2.53
2018-03-24T21:12:58.602Z,2.53
2018-03-24T21:15:31.551Z,2.60
2018-03-24T21:18:04.460Z,2.51
2018-03-24T21:20:40.778Z,2.46
2018-03-24T21:23:13.976Z,2.30
2018-03-24T21:25:46.733Z,2.24
2018-03-24T21:28:20.864Z,2.18
2018-03-24T21:30:54.026Z,2.20
2018-03-24T21:33:27.940Z,2.16
2018-03-24T21:36:01.191Z,2.07
2018-03-24T21:38:33.979Z,2.08
2018-03-24T21:41:07.570Z,2.15
2018-03-24T21:43:40.757Z,2.12
2018-03-24T21:46:14.386Z,2.08
2018-03-24T21:48:47.804Z,2.04
2018-03-24T21:51:20.867Z,2.01
2018-03-24T21:53:54.598Z,1.91
2018-03-24T21:56:33.446Z,1.99
2018-03-24T21:59:09.687Z,1.94
2018-03-24T22:01:47.988Z,1.94
2018-03-24T22:04:25.013Z,1.92
2018-03-24T22:09:50.723Z,1.72
2018-03-24T22:12:30.389Z,1.75
2018-03-24T22:15:03.353Z,1.69
2018-03-24T22:17:41.485Z,1.61
2018-03-24T22:20:18.517Z,1.53
2018-03-24T22:22:51.155Z,1.49
2018-03-24T22:25:23.830Z,1.44
2018-03-24T22:27:56.608Z,1.38
2018-03-24T22:30:29.411Z,1.37
2018-03-24T22:33:02.592Z,1.33
2018-03-24T22:35:36.094Z,1.22
2018-03-24T22:38:10.042Z,1.19
2018-03-24T22:40:42.583Z,1.10
2018-03-24T22:43:15.735Z,1.01
2018-03-24T22:46:01.918Z,1.03
2018-03-24T22:48:34.583Z,1.05
2018-03-24T22:51:07.216Z,1.14
2018-03-24T23:00:17.487Z,0.95
2018-03-24T23:02:50.179Z,0.95
2018-03-24T23:05:22.551Z,1.00
2018-03-24T23:07:58.942Z,0.88
2018-03-24T23:10:31.707Z,0.84
2018-03-24T23:13:04.192Z,0.91
2018-03-24T23:15:39.673Z,0.98
2018-03-24T23:18:12.214Z,0.93
2018-03-24T23:20:44.633Z,0.82
2018-03-24T23:23:19.969Z,0.76
2018-03-24T23:25:52.642Z,0.77
2018-03-24T23:28:25.216Z,0.77
2018-03-24T23:31:03.225Z,0.78
2018-03-24T23:33:35.954Z,0.83
2018-03-24T23:36:11.904Z,0.64
2018-03-24T23:38:44.887Z,0.65
2018-03-24T23:41:17.521Z,0.65
2018-03-24T23:43:49.931Z,0.57
2018-03-24T23:46:22.442Z,0.53
2018-03-24T23:49:03.756Z,0.48
2018-03-24T23:51:36.534Z,0.50
2018-03-24T23:54:09.077Z,0.53
2018-03-24T23:57:07.343Z,0.65
2018-03-24T23:59:40.090Z,0.65
